sensor_id;sensor_type;location;lat;lon;timestamp;P1;durP1;ratioP1;P2;durP2;ratioP2
21505;SDS011;10914;48.886;9.394;2022-11-20T00:01:30;43.45;;;39.42;;
21505;SDS011;10914;48.886;9.394;2022-11-20T00:03:56;44.20;;;39.78;;
21505;SDS011;10914;48.886;9.394;2022-11-20T00:06:22;40.63;;;37.10;;
21505;SDS011;10914;48.886;9.394;2022-11-20T00:08:48;41.90;;;38.13;;
21505;SDS011;10914;48.886;9.394;2022-11-20T00:11:18;43.25;;;39.38;;
21505;SDS011;10914;48.886;9.394;2022-11-20T00:13:44;40.72;;;37.20;;
21505;SDS011;10914;48.886;9.394;2022-11-20T00:16:09;46.53;;;41.75;;
21505;SDS011;10914;48.886;9.394;2022-11-20T00:18:35;43.85;;;39.85;;
21505;SDS011;10914;48.886;9.394;2022-11-20T00:21:04;43.63;;;39.80;;
21505;SDS011;10914;48.886;9.394;2022-11-20T00:23:29;42.05;;;38.05;;
21505;SDS011;10914;48.886;9.394;2022-11-20T00:25:54;42.88;;;38.58;;
21505;SDS011;10914;48.886;9.394;2022-11-20T00:28:20;41.83;;;38.22;;
21505;SDS011;10914;48.886;9.394;2022-11-20T00:30:45;41.20;;;37.30;;
21505;SDS011;10914;48.886;9.394;2022-11-20T00:33:10;42.95;;;38.90;;
21505;SDS011;10914;48.886;9.394;2022-11-20T00:35:35;41.88;;;37.88;;
21505;SDS011;10914;48.886;9.394;2022-11-20T00:38:00;39.23;;;35.60;;
21505;SDS011;10914;48.886;9.394;2022-11-20T00:40:26;41.27;;;37.30;;
21505;SDS011;10914;48.886;9.394;2022-11-20T00:42:51;40.85;;;36.97;;
21505;SDS011;10914;48.886;9.394;2022-11-20T00:45:16;38.58;;;35.15;;
21505;SDS011;10914;48.886;9.394;2022-11-20T00:47:41;40.38;;;36.55;;
21505;SDS011;10914;48.886;9.394;2022-11-20T00:50:06;40.77;;;36.97;;
21505;SDS011;10914;48.886;9.394;2022-11-20T00:52:32;40.97;;;37.17;;
21505;SDS011;10914;48.886;9.394;2022-11-20T00:54:57;40.05;;;36.45;;
21505;SDS011;10914;48.886;9.394;2022-11-20T00:57:23;40.22;;;36.45;;
21505;SDS011;10914;48.886;9.394;2022-11-20T00:59:48;41.00;;;37.03;;
21505;SDS011;10914;48.886;9.394;2022-11-20T01:02:13;41.85;;;37.67;;
21505;SDS011;10914;48.886;9.394;2022-11-20T01:04:40;42.83;;;38.88;;
21505;SDS011;10914;48.886;9.394;2022-11-20T01:07:05;42.80;;;38.95;;
21505;SDS011;10914;48.886;9.394;2022-11-20T01:09:30;42.90;;;39.20;;
21505;SDS011;10914;48.886;9.394;2022-11-20T01:11:56;43.45;;;39.38;;
21505;SDS011;10914;48.886;9.394;2022-11-20T01:14:21;45.38;;;41.13;;
21505;SDS011;10914;48.886;9.394;2022-11-20T01:16:48;44.70;;;40.50;;
21505;SDS011;10914;48.886;9.394;2022-11-20T01:19:14;43.25;;;39.17;;
21505;SDS011;10914;48.886;9.394;2022-11-20T01:21:41;41.78;;;38.13;;
21505;SDS011;10914;48.886;9.394;2022-11-20T01:24:07;41.35;;;37.50;;
21505;SDS011;10914;48.886;9.394;2022-11-20T01:26:34;42.78;;;38.75;;
21505;SDS011;10914;48.886;9.394;2022-11-20T01:29:00;43.92;;;39.78;;
21505;SDS011;10914;48.886;9.394;2022-11-20T01:31:30;44.28;;;39.90;;
21505;SDS011;10914;48.886;9.394;2022-11-20T01:33:56;43.85;;;39.65;;
21505;SDS011;10914;48.886;9.394;2022-11-20T01:36:22;44.05;;;39.75;;
21505;SDS011;10914;48.886;9.394;2022-11-20T01:38:50;44.63;;;40.28;;
21505;SDS011;10914;48.886;9.394;2022-11-20T01:41:16;42.10;;;38.22;;
21505;SDS011;10914;48.886;9.394;2022-11-20T01:44:00;44.95;;;40.15;;
21505;SDS011;10914;48.886;9.394;2022-11-20T01:46:25;42.42;;;38.15;;
21505;SDS011;10914;48.886;9.394;2022-11-20T01:48:53;42.55;;;38.75;;
21505;SDS011;10914;48.886;9.394;2022-11-20T01:51:37;39.92;;;36.42;;
21505;SDS011;10914;48.886;9.394;2022-11-20T01:54:05;38.60;;;35.30;;
21505;SDS011;10914;48.886;9.394;2022-11-20T01:56:32;40.95;;;37.25;;
21505;SDS011;10914;48.886;9.394;2022-11-20T01:59:00;41.92;;;38.00;;
21505;SDS011;10914;48.886;9.394;2022-11-20T02:01:26;41.83;;;38.03;;
21505;SDS011;10914;48.886;9.394;2022-11-20T02:03:52;42.70;;;38.70;;
21505;SDS011;10914;48.886;9.394;2022-11-20T02:06:24;42.42;;;38.33;;
21505;SDS011;10914;48.886;9.394;2022-11-20T02:08:51;43.03;;;38.58;;
21505;SDS011;10914;48.886;9.394;2022-11-20T02:11:16;41.70;;;37.60;;
21505;SDS011;10914;48.886;9.394;2022-11-20T02:13:41;44.50;;;40.10;;
21505;SDS011;10914;48.886;9.394;2022-11-20T02:18:43;39.63;;;36.13;;
21505;SDS011;10914;48.886;9.394;2022-11-20T02:23:38;42.22;;;38.28;;
21505;SDS011;10914;48.886;9.394;2022-11-20T02:26:04;45.17;;;40.90;;
21505;SDS011;10914;48.886;9.394;2022-11-20T02:28:31;45.53;;;41.30;;
21505;SDS011;10914;48.886;9.394;2022-11-20T02:30:56;41.53;;;37.90;;
21505;SDS011;10914;48.886;9.394;2022-11-20T02:33:21;45.90;;;41.75;;
21505;SDS011;10914;48.886;9.394;2022-11-20T02:35:47;44.33;;;40.40;;
21505;SDS011;10914;48.886;9.394;2022-11-20T02:38:12;43.15;;;39.28;;
21505;SDS011;10914;48.886;9.394;2022-11-20T02:40:38;42.30;;;38.67;;
21505;SDS011;10914;48.886;9.394;2022-11-20T02:43:03;43.92;;;39.97;;
21505;SDS011;10914;48.886;9.394;2022-11-20T02:45:28;38.83;;;35.55;;
21505;SDS011;10914;48.886;9.394;2022-11-20T02:47:53;42.33;;;38.63;;
21505;SDS011;10914;48.886;9.394;2022-11-20T02:50:19;40.63;;;37.10;;
21505;SDS011;10914;48.886;9.394;2022-11-20T02:52:44;45.00;;;41.15;;
21505;SDS011;10914;48.886;9.394;2022-11-20T02:55:09;42.20;;;38.78;;
21505;SDS011;10914;48.886;9.394;2022-11-20T02:57:35;40.60;;;37.08;;
21505;SDS011;10914;48.886;9.394;2022-11-20T03:00:00;39.30;;;36.40;;
21505;SDS011;10914;48.886;9.394;2022-11-20T03:02:29;36.13;;;33.50;;
21505;SDS011;10914;48.886;9.394;2022-11-20T03:04:54;35.67;;;33.05;;
21505;SDS011;10914;48.886;9.394;2022-11-20T03:07:19;35.67;;;33.08;;
21505;SDS011;10914;48.886;9.394;2022-11-20T03:09:44;36.42;;;33.80;;
21505;SDS011;10914;48.886;9.394;2022-11-20T03:12:09;32.30;;;30.20;;
21505;SDS011;10914;48.886;9.394;2022-11-20T03:14:35;32.03;;;29.77;;
21505;SDS011;10914;48.886;9.394;2022-11-20T03:17:00;31.95;;;29.85;;
21505;SDS011;10914;48.886;9.394;2022-11-20T03:19:25;31.13;;;29.10;;
21505;SDS011;10914;48.886;9.394;2022-11-20T03:21:50;31.80;;;29.70;;
21505;SDS011;10914;48.886;9.394;2022-11-20T03:24:15;30.50;;;28.57;;
21505;SDS011;10914;48.886;9.394;2022-11-20T03:26:40;30.98;;;28.98;;
21505;SDS011;10914;48.886;9.394;2022-11-20T03:29:06;31.98;;;29.95;;
21505;SDS011;10914;48.886;9.394;2022-11-20T03:31:32;31.00;;;29.00;;
21505;SDS011;10914;48.886;9.394;2022-11-20T03:33:58;31.42;;;29.35;;
21505;SDS011;10914;48.886;9.394;2022-11-20T03:36:24;31.17;;;29.23;;
21505;SDS011;10914;48.886;9.394;2022-11-20T03:38:49;30.60;;;28.70;;
21505;SDS011;10914;48.886;9.394;2022-11-20T03:41:17;31.80;;;29.48;;
21505;SDS011;10914;48.886;9.394;2022-11-20T03:43:46;30.73;;;28.80;;
21505;SDS011;10914;48.886;9.394;2022-11-20T03:46:12;30.38;;;28.48;;
21505;SDS011;10914;48.886;9.394;2022-11-20T03:48:37;29.90;;;28.00;;
21505;SDS011;10914;48.886;9.394;2022-11-20T03:51:18;29.75;;;27.85;;
21505;SDS011;10914;48.886;9.394;2022-11-20T03:53:44;29.83;;;28.05;;
21505;SDS011;10914;48.886;9.394;2022-11-20T03:56:11;31.17;;;29.23;;
21505;SDS011;10914;48.886;9.394;2022-11-20T03:58:37;30.80;;;28.90;;
21505;SDS011;10914;48.886;9.394;2022-11-20T04:01:08;31.25;;;29.35;;
21505;SDS011;10914;48.886;9.394;2022-11-20T04:03:34;29.70;;;28.00;;
21505;SDS011;10914;48.886;9.394;2022-11-20T04:06:03;31.45;;;29.55;;
21505;SDS011;10914;48.886;9.394;2022-11-20T04:08:28;30.00;;;28.05;;
21505;SDS011;10914;48.886;9.394;2022-11-20T04:10:53;30.52;;;28.73;;
21505;SDS011;10914;48.886;9.394;2022-11-20T04:13:18;29.95;;;28.17;;
21505;SDS011;10914;48.886;9.394;2022-11-20T04:15:44;29.85;;;28.05;;
21505;SDS011;10914;48.886;9.394;2022-11-20T04:18:09;30.50;;;28.60;;
21505;SDS011;10914;48.886;9.394;2022-11-20T04:20:34;29.58;;;27.83;;
21505;SDS011;10914;48.886;9.394;2022-11-20T04:23:00;29.05;;;27.25;;
21505;SDS011;10914;48.886;9.394;2022-11-20T04:25:25;30.07;;;27.90;;
21505;SDS011;10914;48.886;9.394;2022-11-20T04:27:50;29.35;;;27.33;;
21505;SDS011;10914;48.886;9.394;2022-11-20T04:30:15;28.95;;;27.13;;
21505;SDS011;10914;48.886;9.394;2022-11-20T04:32:40;30.50;;;28.40;;
21505;SDS011;10914;48.886;9.394;2022-11-20T04:35:06;28.90;;;27.10;;
21505;SDS011;10914;48.886;9.394;2022-11-20T04:37:31;29.77;;;27.98;;
21505;SDS011;10914;48.886;9.394;2022-11-20T04:39:56;29.70;;;28.00;;
21505;SDS011;10914;48.886;9.394;2022-11-20T04:42:21;30.27;;;28.27;;
21505;SDS011;10914;48.886;9.394;2022-11-20T04:44:56;28.58;;;26.98;;
21505;SDS011;10914;48.886;9.394;2022-11-20T04:47:21;29.48;;;27.58;;
21505;SDS011;10914;48.886;9.394;2022-11-20T04:49:46;30.42;;;28.55;;
21505;SDS011;10914;48.886;9.394;2022-11-20T04:52:12;29.98;;;28.05;;
21505;SDS011;10914;48.886;9.394;2022-11-20T04:54:37;27.95;;;26.42;;
21505;SDS011;10914;48.886;9.394;2022-11-20T04:57:02;29.58;;;27.88;;
21505;SDS011;10914;48.886;9.394;2022-11-20T04:59:27;28.70;;;26.90;;
21505;SDS011;10914;48.886;9.394;2022-11-20T05:01:52;29.15;;;27.45;;
21505;SDS011;10914;48.886;9.394;2022-11-20T05:04:18;28.65;;;27.08;;
21505;SDS011;10914;48.886;9.394;2022-11-20T05:06:43;28.52;;;26.92;;
21505;SDS011;10914;48.886;9.394;2022-11-20T05:09:08;28.88;;;27.15;;
21505;SDS011;10914;48.886;9.394;2022-11-20T05:11:33;30.30;;;28.30;;
21505;SDS011;10914;48.886;9.394;2022-11-20T05:13:59;29.25;;;27.50;;
21505;SDS011;10914;48.886;9.394;2022-11-20T05:16:25;29.60;;;27.77;;
21505;SDS011;10914;48.886;9.394;2022-11-20T05:18:50;29.10;;;27.30;;
21505;SDS011;10914;48.886;9.394;2022-11-20T05:21:16;29.33;;;27.63;;
21505;SDS011;10914;48.886;9.394;2022-11-20T05:23:41;29.00;;;27.20;;
21505;SDS011;10914;48.886;9.394;2022-11-20T05:26:07;29.15;;;27.55;;
21505;SDS011;10914;48.886;9.394;2022-11-20T05:28:33;29.63;;;27.77;;
21505;SDS011;10914;48.886;9.394;2022-11-20T05:31:05;29.35;;;27.55;;
21505;SDS011;10914;48.886;9.394;2022-11-20T05:33:32;28.63;;;27.02;;
21505;SDS011;10914;48.886;9.394;2022-11-20T05:36:00;29.92;;;28.02;;
21505;SDS011;10914;48.886;9.394;2022-11-20T05:38:25;29.52;;;27.70;;
21505;SDS011;10914;48.886;9.394;2022-11-20T05:40:50;29.45;;;27.65;;
21505;SDS011;10914;48.886;9.394;2022-11-20T05:43:16;29.23;;;27.50;;
21505;SDS011;10914;48.886;9.394;2022-11-20T05:45:41;29.40;;;27.50;;
21505;SDS011;10914;48.886;9.394;2022-11-20T05:48:06;28.37;;;26.77;;
21505;SDS011;10914;48.886;9.394;2022-11-20T05:50:31;27.95;;;26.35;;
21505;SDS011;10914;48.886;9.394;2022-11-20T05:52:59;29.57;;;27.50;;
21505;SDS011;10914;48.886;9.394;2022-11-20T05:55:25;29.10;;;27.40;;
21505;SDS011;10914;48.886;9.394;2022-11-20T05:57:51;28.95;;;27.08;;
21505;SDS011;10914;48.886;9.394;2022-11-20T06:00:17;29.13;;;27.40;;
21505;SDS011;10914;48.886;9.394;2022-11-20T06:02:42;28.88;;;27.13;;
21505;SDS011;10914;48.886;9.394;2022-11-20T06:05:07;29.00;;;27.27;;
21505;SDS011;10914;48.886;9.394;2022-11-20T06:07:32;28.65;;;26.90;;
21505;SDS011;10914;48.886;9.394;2022-11-20T06:09:58;29.48;;;27.60;;
21505;SDS011;10914;48.886;9.394;2022-11-20T06:12:23;28.85;;;27.15;;
21505;SDS011;10914;48.886;9.394;2022-11-20T06:14:48;28.25;;;26.65;;
21505;SDS011;10914;48.886;9.394;2022-11-20T06:17:13;29.83;;;27.77;;
21505;SDS011;10914;48.886;9.394;2022-11-20T06:19:39;29.55;;;27.85;;
21505;SDS011;10914;48.886;9.394;2022-11-20T06:22:04;28.67;;;26.93;;
21505;SDS011;10914;48.886;9.394;2022-11-20T06:24:29;28.95;;;27.33;;
21505;SDS011;10914;48.886;9.394;2022-11-20T06:26:54;29.33;;;27.33;;
21505;SDS011;10914;48.886;9.394;2022-11-20T06:29:19;28.90;;;27.20;;
21505;SDS011;10914;48.886;9.394;2022-11-20T06:31:45;29.25;;;27.52;;
21505;SDS011;10914;48.886;9.394;2022-11-20T06:34:10;28.27;;;26.67;;
21505;SDS011;10914;48.886;9.394;2022-11-20T06:36:35;28.60;;;26.98;;
21505;SDS011;10914;48.886;9.394;2022-11-20T06:39:00;29.05;;;27.33;;
21505;SDS011;10914;48.886;9.394;2022-11-20T06:41:26;28.90;;;27.10;;
21505;SDS011;10914;48.886;9.394;2022-11-20T06:43:52;29.60;;;27.85;;
21505;SDS011;10914;48.886;9.394;2022-11-20T06:46:18;28.60;;;26.85;;
21505;SDS011;10914;48.886;9.394;2022-11-20T06:48:44;28.20;;;26.48;;
21505;SDS011;10914;48.886;9.394;2022-11-20T06:51:09;28.02;;;26.27;;
21505;SDS011;10914;48.886;9.394;2022-11-20T06:53:35;28.15;;;26.55;;
21505;SDS011;10914;48.886;9.394;2022-11-20T06:56:00;27.95;;;26.25;;
21505;SDS011;10914;48.886;9.394;2022-11-20T06:58:26;27.58;;;26.05;;
21505;SDS011;10914;48.886;9.394;2022-11-20T07:00:52;27.45;;;25.85;;
21505;SDS011;10914;48.886;9.394;2022-11-20T07:03:17;28.38;;;26.88;;
21505;SDS011;10914;48.886;9.394;2022-11-20T07:05:42;27.80;;;26.15;;
21505;SDS011;10914;48.886;9.394;2022-11-20T07:08:07;28.02;;;26.30;;
21505;SDS011;10914;48.886;9.394;2022-11-20T07:10:33;27.10;;;25.67;;
21505;SDS011;10914;48.886;9.394;2022-11-20T07:12:58;27.92;;;26.35;;
21505;SDS011;10914;48.886;9.394;2022-11-20T07:15:24;27.00;;;25.50;;
21505;SDS011;10914;48.886;9.394;2022-11-20T07:17:50;28.13;;;26.38;;
21505;SDS011;10914;48.886;9.394;2022-11-20T07:20:15;27.67;;;26.00;;
21505;SDS011;10914;48.886;9.394;2022-11-20T07:22:40;27.33;;;25.83;;
21505;SDS011;10914;48.886;9.394;2022-11-20T07:25:06;27.70;;;25.95;;
21505;SDS011;10914;48.886;9.394;2022-11-20T07:27:31;26.98;;;25.45;;
21505;SDS011;10914;48.886;9.394;2022-11-20T07:29:56;26.98;;;25.48;;
21505;SDS011;10914;48.886;9.394;2022-11-20T07:32:22;27.45;;;25.95;;
21505;SDS011;10914;48.886;9.394;2022-11-20T07:34:47;26.88;;;25.48;;
21505;SDS011;10914;48.886;9.394;2022-11-20T07:37:13;27.48;;;25.90;;
21505;SDS011;10914;48.886;9.394;2022-11-20T07:39:38;27.48;;;25.88;;
21505;SDS011;10914;48.886;9.394;2022-11-20T07:42:05;27.30;;;25.77;;
21505;SDS011;10914;48.886;9.394;2022-11-20T07:44:30;27.10;;;25.70;;
21505;SDS011;10914;48.886;9.394;2022-11-20T07:46:55;26.45;;;25.05;;
21505;SDS011;10914;48.886;9.394;2022-11-20T07:49:20;26.92;;;25.52;;
21505;SDS011;10914;48.886;9.394;2022-11-20T07:51:46;26.63;;;25.30;;
21505;SDS011;10914;48.886;9.394;2022-11-20T07:54:11;26.92;;;25.42;;
21505;SDS011;10914;48.886;9.394;2022-11-20T07:56:36;26.30;;;24.90;;
21505;SDS011;10914;48.886;9.394;2022-11-20T07:59:01;27.40;;;25.90;;
21505;SDS011;10914;48.886;9.394;2022-11-20T08:01:28;29.30;;;27.60;;
21505;SDS011;10914;48.886;9.394;2022-11-20T08:03:53;29.63;;;27.80;;
21505;SDS011;10914;48.886;9.394;2022-11-20T08:06:18;27.98;;;26.38;;
21505;SDS011;10914;48.886;9.394;2022-11-20T08:08:44;28.20;;;26.70;;
21505;SDS011;10914;48.886;9.394;2022-11-20T08:11:09;28.75;;;27.15;;
21505;SDS011;10914;48.886;9.394;2022-11-20T08:13:53;31.45;;;29.40;;
21505;SDS011;10914;48.886;9.394;2022-11-20T08:16:40;32.22;;;30.23;;
21505;SDS011;10914;48.886;9.394;2022-11-20T08:19:06;30.08;;;28.27;;
21505;SDS011;10914;48.886;9.394;2022-11-20T08:21:32;28.92;;;27.33;;
21505;SDS011;10914;48.886;9.394;2022-11-20T08:23:57;30.48;;;28.48;;
21505;SDS011;10914;48.886;9.394;2022-11-20T08:26:22;30.58;;;28.77;;
21505;SDS011;10914;48.886;9.394;2022-11-20T08:28:48;30.13;;;28.13;;
21505;SDS011;10914;48.886;9.394;2022-11-20T08:31:13;29.45;;;27.65;;
21505;SDS011;10914;48.886;9.394;2022-11-20T08:33:38;29.70;;;27.90;;
21505;SDS011;10914;48.886;9.394;2022-11-20T08:36:04;29.35;;;27.55;;
21505;SDS011;10914;48.886;9.394;2022-11-20T08:38:30;29.17;;;27.58;;
21505;SDS011;10914;48.886;9.394;2022-11-20T08:40:56;31.60;;;29.80;;
21505;SDS011;10914;48.886;9.394;2022-11-20T08:43:40;29.17;;;27.55;;
21505;SDS011;10914;48.886;9.394;2022-11-20T08:46:05;28.10;;;26.60;;
21505;SDS011;10914;48.886;9.394;2022-11-20T08:48:30;28.90;;;27.38;;
21505;SDS011;10914;48.886;9.394;2022-11-20T08:50:57;30.90;;;28.90;;
21505;SDS011;10914;48.886;9.394;2022-11-20T08:53:22;29.60;;;28.02;;
21505;SDS011;10914;48.886;9.394;2022-11-20T08:55:47;28.38;;;26.98;;
21505;SDS011;10914;48.886;9.394;2022-11-20T08:58:12;28.93;;;27.27;;
21505;SDS011;10914;48.886;9.394;2022-11-20T09:00:38;37.17;;;34.57;;
21505;SDS011;10914;48.886;9.394;2022-11-20T09:03:03;37.63;;;34.63;;
21505;SDS011;10914;48.886;9.394;2022-11-20T09:05:28;34.47;;;32.03;;
21505;SDS011;10914;48.886;9.394;2022-11-20T09:07:56;30.75;;;29.00;;
21505;SDS011;10914;48.886;9.394;2022-11-20T09:10:22;34.58;;;32.38;;
21505;SDS011;10914;48.886;9.394;2022-11-20T09:12:50;31.75;;;30.00;;
21505;SDS011;10914;48.886;9.394;2022-11-20T09:15:16;30.77;;;29.10;;
21505;SDS011;10914;48.886;9.394;2022-11-20T09:17:41;30.38;;;28.70;;
21505;SDS011;10914;48.886;9.394;2022-11-20T09:20:07;50.07;;;42.80;;
21505;SDS011;10914;48.886;9.394;2022-11-20T09:22:32;99.28;;;65.55;;
21505;SDS011;10914;48.886;9.394;2022-11-20T09:24:57;32.38;;;30.50;;
21505;SDS011;10914;48.886;9.394;2022-11-20T09:27:22;31.20;;;29.40;;
21505;SDS011;10914;48.886;9.394;2022-11-20T09:29:48;28.90;;;27.30;;
21505;SDS011;10914;48.886;9.394;2022-11-20T09:32:13;30.27;;;28.58;;
21505;SDS011;10914;48.886;9.394;2022-11-20T09:34:38;32.83;;;30.77;;
21505;SDS011;10914;48.886;9.394;2022-11-20T09:37:03;33.90;;;31.70;;
21505;SDS011;10914;48.886;9.394;2022-11-20T09:39:29;30.90;;;29.10;;
21505;SDS011;10914;48.886;9.394;2022-11-20T09:42:07;29.45;;;27.92;;
21505;SDS011;10914;48.886;9.394;2022-11-20T09:50:15;29.92;;;28.52;;
21505;SDS011;10914;48.886;9.394;2022-11-20T09:55:21;27.85;;;26.55;;
21505;SDS011;10914;48.886;9.394;2022-11-20T09:57:47;27.90;;;26.60;;
21505;SDS011;10914;48.886;9.394;2022-11-20T10:00:13;27.40;;;26.10;;
21505;SDS011;10914;48.886;9.394;2022-11-20T10:02:42;32.47;;;30.13;;
21505;SDS011;10914;48.886;9.394;2022-11-20T10:05:15;28.25;;;26.83;;
21505;SDS011;10914;48.886;9.394;2022-11-20T10:08:28;29.10;;;27.80;;
21505;SDS011;10914;48.886;9.394;2022-11-20T10:10:47;31.45;;;29.98;;
21505;SDS011;10914;48.886;9.394;2022-11-20T10:13:20;28.40;;;27.10;;
21505;SDS011;10914;48.886;9.394;2022-11-20T10:16:24;28.10;;;26.77;;
21505;SDS011;10914;48.886;9.394;2022-11-20T10:21:12;28.38;;;26.88;;
21505;SDS011;10914;48.886;9.394;2022-11-20T10:24:05;27.92;;;26.58;;
21505;SDS011;10914;48.886;9.394;2022-11-20T10:29:11;28.38;;;27.08;;
21505;SDS011;10914;48.886;9.394;2022-11-20T10:31:41;45.92;;;41.80;;
21505;SDS011;10914;48.886;9.394;2022-11-20T10:34:18;27.67;;;26.27;;
21505;SDS011;10914;48.886;9.394;2022-11-20T10:37:09;27.48;;;26.05;;
21505;SDS011;10914;48.886;9.394;2022-11-20T10:39:39;29.63;;;28.13;;
21505;SDS011;10914;48.886;9.394;2022-11-20T10:42:08;36.72;;;34.22;;
21505;SDS011;10914;48.886;9.394;2022-11-20T10:44:36;29.08;;;27.48;;
21505;SDS011;10914;48.886;9.394;2022-11-20T10:47:20;33.50;;;31.38;;
21505;SDS011;10914;48.886;9.394;2022-11-20T10:49:50;31.48;;;29.70;;
21505;SDS011;10914;48.886;9.394;2022-11-20T11:00:09;37.67;;;34.60;;
21505;SDS011;10914;48.886;9.394;2022-11-20T11:02:39;29.58;;;27.95;;
21505;SDS011;10914;48.886;9.394;2022-11-20T11:07:50;28.67;;;27.27;;
21505;SDS011;10914;48.886;9.394;2022-11-20T11:12:50;28.88;;;27.48;;
21505;SDS011;10914;48.886;9.394;2022-11-20T11:15:25;30.90;;;29.40;;
21505;SDS011;10914;48.886;9.394;2022-11-20T11:17:51;31.50;;;29.98;;
21505;SDS011;10914;48.886;9.394;2022-11-20T11:20:20;30.15;;;28.75;;
21505;SDS011;10914;48.886;9.394;2022-11-20T11:22:47;29.63;;;28.17;;
21505;SDS011;10914;48.886;9.394;2022-11-20T11:25:32;30.10;;;28.40;;
21505;SDS011;10914;48.886;9.394;2022-11-20T11:28:02;29.58;;;28.10;;
21505;SDS011;10914;48.886;9.394;2022-11-20T11:30:28;32.17;;;30.52;;
21505;SDS011;10914;48.886;9.394;2022-11-20T11:33:04;31.42;;;29.58;;
21505;SDS011;10914;48.886;9.394;2022-11-20T11:35:30;30.80;;;29.20;;
21505;SDS011;10914;48.886;9.394;2022-11-20T11:38:06;31.17;;;29.42;;
21505;SDS011;10914;48.886;9.394;2022-11-20T11:40:32;32.60;;;30.23;;
21505;SDS011;10914;48.886;9.394;2022-11-20T11:42:59;30.38;;;28.63;;
21505;SDS011;10914;48.886;9.394;2022-11-20T11:45:26;28.15;;;26.65;;
21505;SDS011;10914;48.886;9.394;2022-11-20T11:47:52;27.48;;;25.98;;
21505;SDS011;10914;48.886;9.394;2022-11-20T11:50:18;27.00;;;25.45;;
21505;SDS011;10914;48.886;9.394;2022-11-20T11:55:38;27.70;;;26.23;;
21505;SDS011;10914;48.886;9.394;2022-11-20T11:58:08;29.25;;;27.35;;
21505;SDS011;10914;48.886;9.394;2022-11-20T12:00:35;25.63;;;24.23;;
21505;SDS011;10914;48.886;9.394;2022-11-20T12:03:04;24.55;;;23.35;;
21505;SDS011;10914;48.886;9.394;2022-11-20T12:13:04;22.73;;;21.52;;
21505;SDS011;10914;48.886;9.394;2022-11-20T12:15:33;22.85;;;21.65;;
21505;SDS011;10914;48.886;9.394;2022-11-20T12:17:59;23.15;;;22.02;;
21505;SDS011;10914;48.886;9.394;2022-11-20T12:20:33;24.45;;;22.98;;
21505;SDS011;10914;48.886;9.394;2022-11-20T12:23:22;24.40;;;22.90;;
21505;SDS011;10914;48.886;9.394;2022-11-20T12:25:53;23.55;;;22.35;;
21505;SDS011;10914;48.886;9.394;2022-11-20T12:28:23;23.52;;;22.35;;
21505;SDS011;10914;48.886;9.394;2022-11-20T12:33:18;25.27;;;23.88;;
21505;SDS011;10914;48.886;9.394;2022-11-20T12:41:22;22.55;;;21.35;;
21505;SDS011;10914;48.886;9.394;2022-11-20T12:44:23;22.58;;;21.38;;
21505;SDS011;10914;48.886;9.394;2022-11-20T12:47:33;22.23;;;21.13;;
21505;SDS011;10914;48.886;9.394;2022-11-20T12:52:51;22.40;;;21.20;;
21505;SDS011;10914;48.886;9.394;2022-11-20T12:55:23;22.30;;;21.20;;
21505;SDS011;10914;48.886;9.394;2022-11-20T12:57:53;21.55;;;20.45;;
21505;SDS011;10914;48.886;9.394;2022-11-20T13:00:20;21.70;;;20.65;;
21505;SDS011;10914;48.886;9.394;2022-11-20T13:08:03;21.15;;;20.10;;
21505;SDS011;10914;48.886;9.394;2022-11-20T13:13:15;21.58;;;20.40;;
21505;SDS011;10914;48.886;9.394;2022-11-20T13:18:26;20.25;;;19.15;;
21505;SDS011;10914;48.886;9.394;2022-11-20T13:20:52;20.27;;;19.38;;
21505;SDS011;10914;48.886;9.394;2022-11-20T13:23:24;20.83;;;19.77;;
21505;SDS011;10914;48.886;9.394;2022-11-20T13:25:50;21.58;;;20.50;;
21505;SDS011;10914;48.886;9.394;2022-11-20T13:30:49;22.50;;;21.30;;
21505;SDS011;10914;48.886;9.394;2022-11-20T13:33:28;22.20;;;21.10;;
21505;SDS011;10914;48.886;9.394;2022-11-20T13:38:22;26.08;;;24.13;;
21505;SDS011;10914;48.886;9.394;2022-11-20T13:43:26;24.27;;;22.92;;
21505;SDS011;10914;48.886;9.394;2022-11-20T13:45:56;24.20;;;22.80;;
21505;SDS011;10914;48.886;9.394;2022-11-20T13:48:22;23.98;;;22.60;;
21505;SDS011;10914;48.886;9.394;2022-11-20T13:50:53;23.70;;;22.40;;
21505;SDS011;10914;48.886;9.394;2022-11-20T14:03:34;22.90;;;21.80;;
21505;SDS011;10914;48.886;9.394;2022-11-20T14:06:03;23.60;;;22.30;;
21505;SDS011;10914;48.886;9.394;2022-11-20T14:11:05;23.85;;;22.48;;
21505;SDS011;10914;48.886;9.394;2022-11-20T14:13:30;24.13;;;22.75;;
21505;SDS011;10914;48.886;9.394;2022-11-20T14:15:58;24.63;;;23.13;;
21505;SDS011;10914;48.886;9.394;2022-11-20T14:18:25;25.48;;;23.77;;
21505;SDS011;10914;48.886;9.394;2022-11-20T14:20:50;24.15;;;22.85;;
21505;SDS011;10914;48.886;9.394;2022-11-20T14:23:26;25.10;;;23.58;;
21505;SDS011;10914;48.886;9.394;2022-11-20T14:25:51;24.67;;;23.33;;
21505;SDS011;10914;48.886;9.394;2022-11-20T14:28:22;23.97;;;22.83;;
21505;SDS011;10914;48.886;9.394;2022-11-20T14:30:49;23.65;;;22.45;;
21505;SDS011;10914;48.886;9.394;2022-11-20T14:33:15;23.92;;;22.75;;
21505;SDS011;10914;48.886;9.394;2022-11-20T14:35:44;24.38;;;23.13;;
21505;SDS011;10914;48.886;9.394;2022-11-20T14:38:11;26.17;;;24.67;;
21505;SDS011;10914;48.886;9.394;2022-11-20T14:40:37;25.70;;;24.15;;
21505;SDS011;10914;48.886;9.394;2022-11-20T14:43:15;29.63;;;27.30;;
21505;SDS011;10914;48.886;9.394;2022-11-20T14:45:42;22.38;;;21.27;;
21505;SDS011;10914;48.886;9.394;2022-11-20T14:48:08;23.63;;;22.48;;
21505;SDS011;10914;48.886;9.394;2022-11-20T14:50:34;22.98;;;21.83;;
21505;SDS011;10914;48.886;9.394;2022-11-20T14:53:00;23.88;;;22.67;;
21505;SDS011;10914;48.886;9.394;2022-11-20T14:57:54;23.92;;;22.73;;
21505;SDS011;10914;48.886;9.394;2022-11-20T15:00:20;24.17;;;22.98;;
21505;SDS011;10914;48.886;9.394;2022-11-20T15:02:46;23.77;;;22.58;;
21505;SDS011;10914;48.886;9.394;2022-11-20T15:05:12;23.70;;;22.50;;
21505;SDS011;10914;48.886;9.394;2022-11-20T15:07:39;24.13;;;22.83;;
21505;SDS011;10914;48.886;9.394;2022-11-20T15:10:12;23.40;;;22.15;;
21505;SDS011;10914;48.886;9.394;2022-11-20T15:12:38;24.20;;;23.08;;
21505;SDS011;10914;48.886;9.394;2022-11-20T15:15:05;32.00;;;29.52;;
21505;SDS011;10914;48.886;9.394;2022-11-20T15:17:30;39.33;;;35.53;;
21505;SDS011;10914;48.886;9.394;2022-11-20T15:19:56;39.42;;;36.00;;
21505;SDS011;10914;48.886;9.394;2022-11-20T15:22:21;41.33;;;37.70;;
21505;SDS011;10914;48.886;9.394;2022-11-20T15:24:47;35.95;;;33.35;;
21505;SDS011;10914;48.886;9.394;2022-11-20T15:27:12;33.20;;;31.10;;
21505;SDS011;10914;48.886;9.394;2022-11-20T15:29:37;29.02;;;27.42;;
21505;SDS011;10914;48.886;9.394;2022-11-20T15:32:02;27.40;;;26.00;;
21505;SDS011;10914;48.886;9.394;2022-11-20T15:34:28;28.23;;;26.77;;
21505;SDS011;10914;48.886;9.394;2022-11-20T15:36:53;27.20;;;25.65;;
21505;SDS011;10914;48.886;9.394;2022-11-20T15:39:19;25.83;;;24.45;;
21505;SDS011;10914;48.886;9.394;2022-11-20T15:41:44;26.70;;;25.30;;
21505;SDS011;10914;48.886;9.394;2022-11-20T15:44:10;26.67;;;25.33;;
21505;SDS011;10914;48.886;9.394;2022-11-20T15:46:39;26.58;;;25.02;;
21505;SDS011;10914;48.886;9.394;2022-11-20T15:49:10;26.45;;;24.85;;